Time;durP1;ratioP1;P1;durP2;ratioP2;P2;SDS_P1;SDS_P2;PMS_P1;PMS_P2;Temp;Humidity;BMP_temperature;BMP_pressure;BME280_temperature;BME280_humidity;BME280_pressure;Samples;Min_cycle;Max_cycle;Signal;HPM_P1;HPM_P2
2023/05/17 00:01:07;;;;;;;13.32;8.70;;;;;;;13.19;100.00;92505.41;5058861;28;20044;-73
2023/05/17 00:03:34;;;;;;;18.13;9.55;;;;;;;13.20;100.00;92525.03;5065711;28;20055;-73
2023/05/17 00:06:01;;;;;;;16.55;8.93;;;;;;;13.21;100.00;92529.16;5068820;28;20044;-73
2023/05/17 00:08:29;;;;;;;13.77;8.30;;;;;;;13.18;100.00;92527.84;5069669;28;20044;-73
2023/05/17 00:10:55;;;;;;;12.82;8.55;;;;;;;13.12;100.00;92518.50;5062515;28;20390;-73
2023/05/17 00:13:22;;;;;;;16.92;9.30;;;;;;;13.14;100.00;92529.34;5056015;28;20045;-73
2023/05/17 00:15:49;;;;;;;15.68;8.32;;;;;;;13.10;100.00;92516.16;5070110;28;20048;-73
2023/05/17 00:18:16;;;;;;;11.13;7.93;;;;;;;13.10;100.00;92521.31;5069531;28;20443;-73
2023/05/17 00:20:42;;;;;;;12.65;8.48;;;;;;;13.01;100.00;92506.50;5069969;28;20748;-73
2023/05/17 00:23:09;;;;;;;14.05;7.22;;;;;;;13.05;100.00;92508.34;5069773;28;20052;-73
2023/05/17 00:25:37;;;;;;;13.40;7.45;;;;;;;13.05;100.00;92510.94;5069599;28;20076;-73
2023/05/17 00:28:05;;;;;;;16.10;7.55;;;;;;;12.98;100.00;92515.50;5069213;28;20075;-72
2023/05/17 00:30:31;;;;;;;13.88;7.88;;;;;;;12.94;100.00;92515.22;5069572;28;20051;-73
2023/05/17 00:32:58;;;;;;;11.52;6.97;;;;;;;12.97;100.00;92519.09;5068818;28;20109;-73
2023/05/17 00:35:25;;;;;;;17.63;7.93;;;;;;;12.91;100.00;92514.91;5069718;28;20074;-73
2023/05/17 00:37:52;;;;;;;10.32;7.25;;;;;;;12.90;100.00;92518.50;5069514;28;20056;-73
2023/05/17 00:40:19;;;;;;;14.65;7.13;;;;;;;12.80;100.00;92508.84;5069119;28;20048;-73
2023/05/17 00:42:47;;;;;;;16.63;8.05;;;;;;;12.92;100.00;92524.97;5068996;28;20390;-72
2023/05/17 00:45:14;;;;;;;12.90;7.63;;;;;;;12.92;100.00;92521.63;5068948;28;20053;-73
2023/05/17 00:47:41;;;;;;;14.88;7.18;;;;;;;12.91;100.00;92517.50;5069423;28;20044;-73
2023/05/17 00:50:08;;;;;;;13.48;6.53;;;;;;;12.90;100.00;92514.13;5069194;28;20080;-73
2023/05/17 00:52:35;;;;;;;14.00;6.00;;;;;;;12.93;100.00;92513.66;5068796;28;20067;-73
2023/05/17 00:55:03;;;;;;;11.85;6.03;;;;;;;12.92;100.00;92516.47;5068769;28;20048;-72
2023/05/17 00:57:30;;;;;;;19.00;7.57;;;;;;;12.90;100.00;92514.13;5069233;28;20040;-72
2023/05/17 00:59:59;;;;;;;14.88;6.07;;;;;;;12.80;100.00;92512.22;5068347;28;20044;-72
2023/05/17 01:02:26;;;;;;;10.95;6.10;;;;;;;12.80;100.00;92508.84;5068620;28;20049;-72
2023/05/17 01:04:53;;;;;;;12.93;5.97;;;;;;;12.76;100.00;92512.94;5068858;28;20098;-72
2023/05/17 01:07:20;;;;;;;11.13;6.05;;;;;;;12.74;100.00;92509.81;5068568;28;20068;-72
2023/05/17 01:09:47;;;;;;;10.90;6.43;;;;;;;12.72;100.00;92517.03;5068697;28;20516;-72
2023/05/17 01:12:29;;;;;;;17.52;7.22;;;;;;;12.57;100.00;92497.78;5063486;28;20048;-72
2023/05/17 01:15:05;;;;;;;14.38;6.60;;;;;;;12.66;100.00;92511.81;5056012;28;20516;-72
2023/05/17 01:17:39;;;;;;;14.18;7.03;;;;;;;12.61;100.00;92504.00;5057017;28;20048;-72
2023/05/17 01:20:16;;;;;;;12.13;6.88;;;;;;;12.50;100.00;92515.97;5068350;28;20129;-72
2023/05/17 01:22:49;;;;;;;14.68;6.38;;;;;;;12.49;100.00;92523.97;5068267;28;20052;-72
2023/05/17 01:25:28;;;;;;;15.25;6.75;;;;;;;12.46;100.00;92534.72;5068368;28;20854;-72
2023/05/17 01:27:59;;;;;;;14.88;7.78;;;;;;;12.39;100.00;92527.94;5068136;28;20055;-72
2023/05/17 01:30:26;;;;;;;13.15;6.60;;;;;;;12.37;100.00;92529.97;5067267;28;20055;-72
2023/05/17 01:32:56;;;;;;;14.10;7.72;;;;;;;12.35;100.00;92529.44;5068360;28;20084;-72
2023/05/17 01:35:23;;;;;;;12.77;6.90;;;;;;;12.29;100.00;92526.03;5068578;28;20052;-72
2023/05/17 01:37:50;;;;;;;17.02;7.72;;;;;;;12.31;100.00;92525.00;5068573;28;20052;-72
2023/05/17 01:40:18;;;;;;;13.80;7.10;;;;;;;12.32;100.00;92527.34;5064194;28;20377;-73
2023/05/17 01:42:46;;;;;;;15.25;7.30;;;;;;;12.32;100.00;92524.78;5048068;28;20083;-72
2023/05/17 01:45:21;;;;;;;14.45;7.00;;;;;;;12.33;100.00;92526.31;5065549;28;20040;-72
2023/05/17 01:47:56;;;;;;;14.32;6.57;;;;;;;12.31;100.00;92520.63;5067887;28;20044;-73
2023/05/17 01:50:26;;;;;;;14.87;8.43;;;;;;;12.35;100.00;92523.53;5068224;28;20059;-73
2023/05/17 01:52:55;;;;;;;14.38;8.15;;;;;;;12.37;100.00;92531.78;5067683;28;20098;-73
2023/05/17 01:55:30;;;;;;;13.10;7.82;;;;;;;12.36;100.00;92528.41;5067704;28;20045;-73
2023/05/17 01:57:59;;;;;;;17.67;8.18;;;;;;;12.35;100.00;92521.72;5067612;28;20048;-73
2023/05/17 02:00:29;;;;;;;18.23;8.63;;;;;;;12.36;100.00;92525.06;5067657;28;20048;-73
2023/05/17 02:02:56;;;;;;;18.20;9.52;;;;;;;12.29;100.00;92525.22;5068097;28;20166;-73
2023/05/17 02:05:22;;;;;;;16.83;8.45;;;;;;;12.27;100.00;92516.97;5067682;28;20098;-73
2023/05/17 02:07:49;;;;;;;17.52;8.00;;;;;;;12.25;100.00;92513.84;5067935;28;20056;-73
2023/05/17 02:10:16;;;;;;;14.25;7.30;;;;;;;12.23;100.00;92510.72;5067254;28;20044;-72
2023/05/17 02:12:43;;;;;;;16.00;7.60;;;;;;;12.24;100.00;92517.44;5063614;28;20045;-72
2023/05/17 02:15:12;;;;;;;14.85;6.65;;;;;;;12.16;100.00;92519.41;5063292;28;20489;-73
2023/05/17 02:17:40;;;;;;;19.65;6.80;;;;;;;12.15;100.00;92522.22;5067321;28;20080;-73
2023/05/17 02:20:10;;;;;;;14.30;6.32;;;;;;;12.10;100.00;92509.25;5067388;28;20056;-73
2023/05/17 02:22:37;;;;;;;17.88;6.03;;;;;;;12.10;100.00;92515.19;5065071;28;20059;-72
2023/05/17 02:25:05;;;;;;;10.88;5.50;;;;;;;12.07;100.00;92507.19;5061195;28;20049;-73
2023/05/17 02:27:31;;;;;;;10.10;5.47;;;;;;;12.08;100.00;92511.31;5067012;28;20044;-72
2023/05/17 02:29:58;;;;;;;13.65;5.57;;;;;;;12.03;100.00;92519.69;5067955;28;20048;-72
2023/05/17 02:32:25;;;;;;;13.35;6.03;;;;;;;12.03;100.00;92519.69;5062446;28;20044;-72
2023/05/17 02:34:53;;;;;;;13.95;5.82;;;;;;;12.08;100.00;92508.72;5067233;28;20492;-73
2023/05/17 02:37:20;;;;;;;10.82;5.90;;;;;;;12.06;100.00;92506.38;5067780;28;20105;-72
2023/05/17 02:39:47;;;;;;;17.27;6.65;;;;;;;12.05;100.00;92514.34;5066884;28;20075;-73
2023/05/17 02:42:14;;;;;;;13.63;5.60;;;;;;;12.05;100.00;92528.00;5050037;28;20531;-76
2023/05/17 02:44:41;;;;;;;13.40;5.15;;;;;;;12.03;100.00;92524.84;5047459;28;20059;-72
2023/05/17 02:47:08;;;;;;;11.55;5.55;;;;;;;12.00;100.00;92520.94;5047470;28;20045;-73
2023/05/17 02:49:34;;;;;;;15.52;5.25;;;;;;;12.00;100.00;92525.31;5047775;28;20473;-72
2023/05/17 02:52:02;;;;;;;13.23;5.03;;;;;;;11.97;100.00;92526.56;5047144;28;20076;-72
2023/05/17 02:54:29;;;;;;;15.23;6.70;;;;;;;11.85;100.00;92521.50;5047928;28;20041;-72
2023/05/17 02:56:56;;;;;;;15.57;5.72;;;;;;;11.84;100.00;92537.94;5050082;28;20146;-73
2023/05/17 02:59:23;;;;;;;11.90;6.40;;;;;;;11.85;100.00;92533.59;5067621;28;20088;-72
2023/05/17 03:01:50;;;;;;;15.80;6.13;;;;;;;11.89;100.00;92537.25;5067735;28;20044;-72
2023/05/17 03:04:18;;;;;;;11.07;6.07;;;;;;;11.94;100.00;92541.69;5047399;28;20167;-73
2023/05/17 03:06:45;;;;;;;11.73;6.15;;;;;;;11.90;100.00;92534.44;5046923;28;20084;-73
2023/05/17 03:09:13;;;;;;;13.82;6.18;;;;;;;11.92;100.00;92534.22;5047215;28;20059;-73
2023/05/17 03:11:40;;;;;;;11.32;5.63;;;;;;;11.94;100.00;92539.13;5046599;28;20064;-73
2023/05/17 03:14:07;;;;;;;13.65;5.68;;;;;;;11.93;100.00;92537.56;5047063;28;20053;-73
2023/05/17 03:16:34;;;;;;;13.93;5.40;;;;;;;11.78;100.00;92533.75;5047053;28;20072;-73
2023/05/17 03:19:01;;;;;;;19.65;5.93;;;;;;;11.63;100.00;92529.13;5046930;28;20497;-73
2023/05/17 03:21:27;;;;;;;14.13;6.30;;;;;;;11.68;100.00;92536.94;5046847;28;20493;-73
2023/05/17 03:23:54;;;;;;;14.25;5.60;;;;;;;11.66;100.00;92523.50;5046821;28;20045;-72
2023/05/17 03:26:22;;;;;;;14.48;5.80;;;;;;;11.52;100.00;92525.59;5046677;28;20783;-72
2023/05/17 03:28:50;;;;;;;13.48;6.25;;;;;;;11.52;100.00;92517.13;5047343;28;20417;-73
2023/05/17 03:31:17;;;;;;;15.45;6.05;;;;;;;11.50;100.00;92518.09;5046773;28;20131;-72
2023/05/17 03:33:44;;;;;;;15.32;7.40;;;;;;;11.44;100.00;92516.47;5046875;28;20490;-73
2023/05/17 03:36:11;;;;;;;11.98;6.60;;;;;;;11.50;100.00;92512.97;5046993;28;20146;-73
2023/05/17 03:38:38;;;;;;;23.35;7.85;;;;;;;11.56;100.00;92510.47;5047301;28;20048;-72
2023/05/17 03:41:05;;;;;;;14.75;7.53;;;;;;;11.62;100.00;92514.72;5050398;28;20052;-73
2023/05/17 03:43:33;;;;;;;18.42;9.65;;;;;;;11.65;100.00;92521.16;5050849;28;20049;-72
2023/05/17 03:46:00;;;;;;;21.63;8.32;;;;;;;11.64;100.00;92522.97;5050731;28;20465;-72
2023/05/17 03:48:26;;;;;;;27.75;11.15;;;;;;;11.63;100.00;92524.75;5050535;28;20502;-72
2023/05/17 03:50:53;;;;;;;16.92;9.10;;;;;;;11.63;100.00;92529.13;5057315;28;20094;-73
2023/05/17 03:53:20;;;;;;;17.67;8.40;;;;;;;11.67;100.00;92516.59;5070444;28;20055;-72
2023/05/17 03:55:47;;;;;;;11.98;8.05;;;;;;;11.65;100.00;92521.97;5070330;28;20067;-72
2023/05/17 03:58:14;;;;;;;20.02;10.93;;;;;;;11.68;100.00;92524.06;5070596;28;20048;-72
2023/05/17 04:00:42;;;;;;;19.85;8.63;;;;;;;11.59;100.00;92510.81;5070197;28;20052;-72
2023/05/17 04:03:09;;;;;;;18.58;9.18;;;;;;;11.72;100.00;92521.81;5070347;28;20048;-72
2023/05/17 04:05:36;;;;;;;16.02;8.25;;;;;;;11.76;100.00;92528.81;5070435;28;20045;-72
2023/05/17 04:08:02;;;;;;;18.38;8.18;;;;;;;11.82;100.00;92534.84;5070175;28;20417;-72
2023/05/17 04:10:29;;;;;;;24.05;8.68;;;;;;;11.87;100.00;92542.66;5069804;28;20045;-72
2023/05/17 04:12:56;;;;;;;15.75;8.38;;;;;;;11.94;100.00;92533.97;5070249;28;20078;-72
2023/05/17 04:15:23;;;;;;;17.92;7.80;;;;;;;12.00;100.00;92527.91;5053968;28;20048;-72
2023/05/17 04:17:51;;;;;;;15.85;8.02;;;;;;;12.10;100.00;92524.72;5050385;28;20399;-72
2023/05/17 04:20:18;;;;;;;13.93;7.90;;;;;;;12.16;100.00;92524.56;5050100;28;20483;-72
2023/05/17 04:22:45;;;;;;;15.32;8.25;;;;;;;12.17;100.00;92515.03;5049677;28;20068;-72
2023/05/17 04:25:11;;;;;;;17.48;9.00;;;;;;;12.31;100.00;92528.34;5049766;28;20041;-72
2023/05/17 04:27:38;;;;;;;24.95;10.48;;;;;;;12.37;100.00;92526.63;5049933;28;20409;-72
2023/05/17 04:30:06;;;;;;;26.92;10.30;;;;;;;12.49;100.00;92527.28;5049435;28;20554;-72
2023/05/17 04:32:34;;;;;;;21.73;10.50;;;;;;;12.58;100.00;92527.66;5058902;28;20057;-72
2023/05/17 04:35:03;;;;;;;22.65;10.32;;;;;;;12.65;100.00;92527.50;5069832;28;20041;-74
2023/05/17 04:37:29;;;;;;;22.17;8.52;;;;;;;12.68;100.00;92532.94;5069593;28;20121;-72
2023/05/17 04:39:57;;;;;;;19.23;9.85;;;;;;;12.73;100.00;92527.06;5069723;28;20682;-72
2023/05/17 04:42:25;;;;;;;19.85;9.38;;;;;;;12.83;100.00;92523.84;5069562;28;20055;-72
2023/05/17 04:44:51;;;;;;;15.45;9.68;;;;;;;12.92;100.00;92524.22;5069499;28;20448;-72
2023/05/17 04:47:18;;;;;;;17.08;8.35;;;;;;;13.09;100.00;92529.28;5069373;28;20048;-72
2023/05/17 04:49:45;;;;;;;15.85;9.02;;;;;;;13.22;100.00;92531.50;5069120;28;20037;-72
2023/05/17 04:52:13;;;;;;;17.13;9.43;;;;;;;13.31;100.00;92537.00;5051125;28;20406;-72
2023/05/17 04:54:40;;;;;;;17.98;7.93;;;;;;;13.36;100.00;92524.16;5049460;28;20048;-72
2023/05/17 04:57:07;;;;;;;15.50;8.18;;;;;;;13.49;100.00;92535.91;5049385;28;20045;-72
2023/05/17 04:59:33;;;;;;;14.73;7.38;;;;;;;13.64;100.00;92539.63;5049664;28;20049;-72
2023/05/17 05:02:00;;;;;;;14.13;7.32;;;;;;;13.77;100.00;92543.63;5063574;28;20059;-72
2023/05/17 05:04:27;;;;;;;17.95;7.72;;;;;;;13.89;100.00;92544.22;5069261;28;20113;-72
2023/05/17 05:06:53;;;;;;;20.88;7.18;;;;;;;14.07;100.00;92552.63;5068745;28;20041;-72
2023/05/17 05:09:21;;;;;;;16.85;7.32;;;;;;;14.27;100.00;92553.81;5069246;28;20060;-72
2023/05/17 05:11:48;;;;;;;16.52;7.35;;;;;;;14.39;100.00;92554.38;5068914;28;20055;-72
2023/05/17 05:14:15;;;;;;;14.05;7.10;;;;;;;14.55;100.00;92560.41;5069203;28;20047;-72
2023/05/17 05:16:42;;;;;;;12.45;6.88;;;;;;;14.57;100.00;92566.13;5068956;28;20052;-72
2023/05/17 05:19:09;;;;;;;13.77;6.57;;;;;;;14.65;100.00;92572.63;5068659;28;20440;-72
2023/05/17 05:21:35;;;;;;;14.35;6.15;;;;;;;14.67;100.00;92573.16;5056689;28;20528;-72
2023/05/17 05:24:03;;;;;;;15.13;6.25;;;;;;;14.54;100.00;92568.44;5050887;28;20066;-72
2023/05/17 05:26:31;;;;;;;14.50;5.90;;;;;;;14.63;100.00;92574.69;5068815;28;20072;-72
2023/05/17 05:28:58;;;;;;;15.70;6.65;;;;;;;14.83;100.00;92566.28;5066638;28;20120;-72
2023/05/17 05:31:25;;;;;;;13.90;6.32;;;;;;;15.13;100.00;92565.91;5068452;28;20051;-72
2023/05/17 05:33:51;;;;;;;15.63;6.75;;;;;;;15.27;100.00;92566.97;5068318;28;20080;-73
2023/05/17 05:36:18;;;;;;;11.38;6.55;;;;;;;15.41;100.00;92569.09;5067920;28;20057;-72
2023/05/17 05:38:45;;;;;;;13.38;6.65;;;;;;;15.21;100.00;92579.13;5067756;28;20095;-72
2023/05/17 05:41:12;;;;;;;12.55;6.78;;;;;;;15.37;100.00;92586.94;5068548;28;20052;-72
2023/05/17 05:43:40;;;;;;;12.65;6.72;;;;;;;15.60;100.00;92577.91;5067799;28;20550;-72
2023/05/17 05:46:07;;;;;;;12.50;6.50;;;;;;;15.69;100.00;92580.78;5067867;28;20049;-72
2023/05/17 05:48:33;;;;;;;14.38;7.65;;;;;;;15.65;100.00;92573.78;5067591;28;20060;-72
2023/05/17 05:51:00;;;;;;;13.63;6.35;;;;;;;16.01;100.00;92584.19;5067468;28;20106;-72
2023/05/17 05:53:27;;;;;;;11.40;6.60;;;;;;;15.85;100.00;92589.34;5067555;28;20045;-72
2023/05/17 05:55:53;;;;;;;14.68;6.28;;;;;;;16.09;100.00;92583.69;5067868;28;20497;-72
2023/05/17 05:58:20;;;;;;;17.35;6.97;;;;;;;16.24;100.00;92592.50;5067846;28;20044;-72
2023/05/17 06:00:49;;;;;;;11.00;6.28;;;;;;;16.53;100.00;92589.38;5067759;28;20041;-72
2023/05/17 06:03:15;;;;;;;12.40;6.50;;;;;;;16.95;100.00;92601.19;5066706;28;20833;-72
2023/05/17 06:05:42;;;;;;;13.15;5.78;;;;;;;17.11;100.00;92603.78;5067316;28;20555;-72
2023/05/17 06:08:09;;;;;;;13.30;6.15;;;;;;;17.27;100.00;92608.91;5067571;28;20044;-72
2023/05/17 06:10:36;;;;;;;13.20;5.88;;;;;;;17.04;100.00;92611.06;5067765;28;20090;-72
2023/05/17 06:13:02;;;;;;;9.73;5.82;;;;;;;17.14;100.00;92608.44;5067561;28;20082;-72
2023/05/17 06:15:32;;;;;;;12.35;7.10;;;;;;;17.33;100.00;92613.84;5067835;28;20112;-72
2023/05/17 06:18:00;;;;;;;14.05;6.90;;;;;;;17.53;100.00;92598.44;5067165;28;20044;-72
2023/05/17 06:20:27;;;;;;;15.98;6.90;;;;;;;17.70;100.00;92609.25;5066909;28;20045;-72
2023/05/17 06:22:54;;;;;;;17.65;6.88;;;;;;;17.88;100.00;92607.06;5067654;28;20055;-72
2023/05/17 06:25:20;;;;;;;15.05;7.40;;;;;;;18.12;100.00;92612.38;5067668;28;20389;-72
2023/05/17 06:27:47;;;;;;;15.18;7.25;;;;;;;18.05;100.00;92616.28;5067093;28;20044;-73
2023/05/17 06:30:14;;;;;;;9.98;6.13;;;;;;;18.15;100.00;92624.81;5067535;28;20385;-72
2023/05/17 06:32:41;;;;;;;12.52;6.25;;;;;;;18.41;100.00;92622.03;5053620;28;20506;-72
2023/05/17 06:35:10;;;;;;;15.00;6.65;;;;;;;18.47;100.00;92622.75;5066935;28;20087;-72
2023/05/17 06:37:37;;;;;;;15.45;6.60;;;;;;;18.54;100.00;92619.84;5067064;28;20090;-72
2023/05/17 06:40:06;;;;;;;14.30;6.85;;;;;;;18.77;100.00;92617.56;5067024;28;20044;-72
2023/05/17 06:42:33;;;;;;;16.42;8.55;;;;;;;18.70;100.00;92610.84;5067233;28;20058;-72
2023/05/17 06:45:00;;;;;;;16.42;7.97;;;;;;;18.95;100.00;92611.66;5067024;28;20055;-73
2023/05/17 06:47:26;;;;;;;14.15;8.77;;;;;;;18.76;100.00;92619.41;5066932;28;20113;-72
2023/05/17 06:49:53;;;;;;;14.02;8.68;;;;;;;19.07;100.00;92621.69;5066758;28;20098;-72
2023/05/17 06:52:21;;;;;;;18.20;9.30;;;;;;;19.10;100.00;92622.97;5067091;28;20045;-72
2023/05/17 06:54:48;;;;;;;16.85;8.80;;;;;;;19.32;100.00;92621.69;5067070;28;20417;-72
2023/05/17 06:57:15;;;;;;;16.40;9.20;;;;;;;19.44;100.00;92619.47;5066903;28;20049;-72
2023/05/17 06:59:42;;;;;;;15.35;9.15;;;;;;;19.59;100.00;92615.13;5067333;28;20394;-72
2023/05/17 07:02:08;;;;;;;21.85;10.60;;;;;;;18.94;100.00;92624.94;5066604;28;20048;-72
2023/05/17 07:04:35;;;;;;;20.42;8.70;;;;;;;18.78;100.00;92630.28;5066925;28;20044;-72
2023/05/17 07:07:02;;;;;;;16.38;8.95;;;;;;;19.08;100.00;92632.91;5066479;28;20501;-72
2023/05/17 07:09:30;;;;;;;19.33;9.40;;;;;;;19.08;100.00;92618.03;5067304;28;20044;-72
2023/05/17 07:11:57;;;;;;;17.65;10.32;;;;;;;19.19;100.00;92643.97;5066763;28;20508;-72
2023/05/17 07:14:24;;;;;;;19.02;10.00;;;;;;;19.15;100.00;92648.94;5068572;28;20052;-72
2023/05/17 07:16:51;;;;;;;20.27;9.63;;;;;;;19.43;100.00;92640.56;5070069;28;20091;-73
2023/05/17 07:19:17;;;;;;;14.48;7.90;;;;;;;19.09;100.00;92645.66;5070934;28;20040;-72
2023/05/17 07:21:44;;;;;;;13.43;8.32;;;;;;;18.91;100.00;92648.91;5070481;28;20053;-72
2023/05/17 07:24:11;;;;;;;12.90;7.13;;;;;;;18.57;100.00;92645.31;5071038;28;20394;-72
2023/05/17 07:26:39;;;;;;;16.13;7.30;;;;;;;19.21;100.00;92640.03;5070728;28;20053;-72
2023/05/17 07:29:06;;;;;;;17.13;7.30;;;;;;;18.79;100.00;92644.09;5070759;28;20045;-72
2023/05/17 07:31:33;;;;;;;17.52;8.60;;;;;;;19.01;100.00;92635.00;5070362;28;20433;-72
2023/05/17 07:33:59;;;;;;;14.60;7.80;;;;;;;19.35;100.00;92641.97;5070618;28;20138;-72
2023/05/17 07:36:29;;;;;;;15.48;7.78;;;;;;;19.43;100.00;92633.53;5070566;28;20484;-72
2023/05/17 07:38:56;;;;;;;14.05;7.70;;;;;;;19.27;100.00;92629.56;5070938;28;20098;-72
2023/05/17 07:41:23;;;;;;;13.45;8.10;;;;;;;19.50;100.00;92628.00;5070370;28;20040;-72
2023/05/17 07:43:51;;;;;;;16.25;8.13;;;;;;;19.83;100.00;92622.88;5070700;28;20168;-72
2023/05/17 07:46:18;;;;;;;15.48;8.77;;;;;;;19.28;100.00;92616.28;5069681;28;20169;-72
2023/05/17 07:48:45;;;;;;;15.52;7.35;;;;;;;19.62;100.00;92633.56;5070234;28;20040;-72
2023/05/17 07:51:11;;;;;;;10.65;7.57;;;;;;;20.00;100.00;92626.88;5069631;28;20420;-72
2023/05/17 07:53:38;;;;;;;13.13;7.05;;;;;;;20.31;100.00;92620.41;5070302;28;20421;-72
2023/05/17 07:56:05;;;;;;;15.02;6.95;;;;;;;20.64;100.00;92618.56;5070087;28;20040;-72
2023/05/17 07:58:32;;;;;;;11.65;6.70;;;;;;;20.15;96.82;92612.81;5070163;28;20059;-72
2023/05/17 08:01:01;;;;;;;15.70;7.25;;;;;;;20.41;100.00;92609.81;5069469;28;20044;-72
2023/05/17 08:03:28;;;;;;;11.52;6.15;;;;;;;20.59;99.44;92613.44;5069951;28;20040;-72
2023/05/17 08:05:55;;;;;;;13.85;7.47;;;;;;;20.85;99.63;92618.25;5070633;28;20094;-72
2023/05/17 08:08:22;;;;;;;12.57;6.07;;;;;;;20.85;95.31;92620.84;5070110;28;20524;-73
2023/05/17 08:10:48;;;;;;;18.40;5.55;;;;;;;20.80;92.30;92610.47;5070030;28;20094;-72
2023/05/17 08:13:15;;;;;;;13.95;6.15;;;;;;;20.83;92.75;92618.50;5069821;28;20056;-72
2023/05/17 08:15:42;;;;;;;12.10;6.78;;;;;;;20.14;94.23;92616.50;5069847;28;20476;-72
2023/05/17 08:18:10;;;;;;;12.25;6.57;;;;;;;20.06;95.93;92610.09;5069625;28;20044;-72
2023/05/17 08:20:37;;;;;;;13.80;7.13;;;;;;;19.91;100.00;92608.44;5065599;28;20053;-72
2023/05/17 08:23:04;;;;;;;11.20;5.75;;;;;;;20.30;100.00;92611.81;5060300;28;20058;-72
2023/05/17 08:25:31;;;;;;;13.65;6.35;;;;;;;20.16;100.00;92603.94;5068185;28;20048;-72
2023/05/17 08:27:58;;;;;;;13.63;6.05;;;;;;;20.55;100.00;92604.66;5069688;28;20075;-72
2023/05/17 08:30:24;;;;;;;15.27;7.10;;;;;;;20.33;97.98;92600.03;5069184;28;20455;-72
2023/05/17 08:32:51;;;;;;;12.73;7.07;;;;;;;20.20;98.19;92601.53;5069901;28;20048;-72
2023/05/17 08:35:20;;;;;;;13.05;6.75;;;;;;;19.84;100.00;92603.59;5069448;28;20045;-72
2023/05/17 08:37:46;;;;;;;15.43;7.68;;;;;;;20.09;100.00;92612.09;5069212;28;20044;-72
2023/05/17 08:40:18;;;;;;;14.10;7.45;;;;;;;19.95;100.00;92612.03;5069352;28;20044;-71
2023/05/17 08:42:45;;;;;;;11.10;7.10;;;;;;;19.85;100.00;92618.16;5069478;28;20045;-72
2023/05/17 08:45:13;;;;;;;12.77;7.28;;;;;;;19.55;100.00;92607.09;5068558;28;20865;-72
2023/05/17 08:47:42;;;;;;;14.32;7.20;;;;;;;19.51;100.00;92608.72;5069409;28;20130;-72
2023/05/17 08:50:11;;;;;;;12.73;6.18;;;;;;;19.38;100.00;92607.56;5069535;28;20044;-73
2023/05/17 08:52:40;;;;;;;14.00;6.70;;;;;;;19.15;100.00;92607.31;5068952;28;20063;-73
2023/05/17 08:55:08;;;;;;;15.15;6.45;;;;;;;18.92;100.00;92617.41;5069093;28;20052;-72
2023/05/17 08:57:36;;;;;;;15.30;7.38;;;;;;;18.94;99.64;92607.50;5069261;28;20044;-72
2023/05/17 09:00:05;;;;;;;11.25;6.07;;;;;;;18.78;100.00;92609.47;5068928;28;20090;-72
2023/05/17 09:02:32;;;;;;;11.27;5.85;;;;;;;19.02;100.00;92607.94;5068879;28;20071;-72
2023/05/17 09:04:59;;;;;;;11.88;5.80;;;;;;;19.43;100.00;92599.69;5068820;28;20093;-72
2023/05/17 09:07:26;;;;;;;11.30;5.75;;;;;;;19.58;98.21;92601.31;5068431;28;20067;-72
2023/05/17 09:09:55;;;;;;;13.40;6.43;;;;;;;19.99;98.44;92594.78;5068791;28;20055;-72
2023/05/17 09:12:22;;;;;;;14.18;5.45;;;;;;;20.10;99.99;92597.25;5068915;28;20417;-72
2023/05/17 09:14:49;;;;;;;11.15;5.50;;;;;;;20.54;96.31;92596.03;5068314;28;20063;-72
2023/05/17 09:17:18;;;;;;;18.40;8.25;;;;;;;20.67;95.30;92584.06;5068732;28;20044;-72
2023/05/17 09:19:46;;;;;;;12.73;5.88;;;;;;;21.28;87.97;92609.34;5068754;28;20125;-72
2023/05/17 09:22:14;;;;;;;9.98;4.78;;;;;;;20.77;85.56;92601.38;5042423;28;20432;-72
2023/05/17 09:24:41;;;;;;;11.20;5.50;;;;;;;21.10;86.98;92590.09;5068633;28;20398;-72
2023/05/17 09:27:15;;;;;;;17.50;5.40;;;;;;;21.03;83.30;92589.72;5068004;28;20044;-72
2023/05/17 09:29:44;;;;;;;16.00;6.53;;;;;;;20.20;92.02;92588.50;5067901;28;20416;-72
2023/05/17 09:32:14;;;;;;;15.07;7.18;;;;;;;20.46;92.87;92581.03;5068370;28;20102;-72
2023/05/17 09:34:41;;;;;;;7.32;4.50;;;;;;;20.41;93.68;92578.53;5068197;28;20063;-72
2023/05/17 09:37:14;;;;;;;12.55;6.13;;;;;;;20.69;95.34;92575.97;5068317;28;20048;-72
2023/05/17 09:39:41;;;;;;;10.10;5.57;;;;;;;20.32;94.59;92583.59;5067794;28;20043;-72
2023/05/17 09:42:08;;;;;;;14.90;5.40;;;;;;;20.49;96.92;92580.47;5067918;28;20047;-72
2023/05/17 09:44:49;;;;;;;8.90;5.88;;;;;;;20.73;97.04;92574.31;5068429;28;20047;-72
2023/05/17 09:47:24;;;;;;;10.70;5.70;;;;;;;20.80;93.61;92581.75;5068538;28;20048;-72
2023/05/17 09:49:51;;;;;;;15.32;5.20;;;;;;;20.78;91.14;92586.50;5042905;28;20052;-72
2023/05/17 09:52:19;;;;;;;11.10;5.10;;;;;;;20.78;93.10;92582.03;5067908;28;20045;-72
2023/05/17 09:54:53;;;;;;;10.52;4.70;;;;;;;20.85;89.51;92589.53;5067722;28;20087;-72
2023/05/17 09:57:20;;;;;;;13.32;5.57;;;;;;;20.66;89.99;92587.75;5054313;28;20083;-72
2023/05/17 09:59:48;;;;;;;13.15;4.35;;;;;;;20.70;84.48;92591.31;5067672;28;20040;-72
2023/05/17 10:02:22;;;;;;;12.02;4.85;;;;;;;20.38;86.77;92585.09;5067712;28;20044;-72
2023/05/17 10:04:50;;;;;;;10.05;4.50;;;;;;;20.32;91.52;92578.38;5068065;28;20051;-72
2023/05/17 10:07:20;;;;;;;15.32;4.90;;;;;;;20.14;92.26;92582.59;5066935;28;20048;-72
2023/05/17 10:09:48;;;;;;;11.98;5.00;;;;;;;19.91;95.09;92561.53;5067292;28;20131;-72
2023/05/17 10:12:17;;;;;;;13.38;5.07;;;;;;;19.69;93.97;92569.91;5066922;28;20044;-72
2023/05/17 10:14:44;;;;;;;11.52;5.80;;;;;;;19.34;96.47;92565.69;5067574;28;20557;-72
2023/05/17 10:17:13;;;;;;;15.25;5.88;;;;;;;19.33;99.72;92558.94;5067107;28;20109;-72
2023/05/17 10:19:41;;;;;;;11.45;5.60;;;;;;;19.47;97.90;92547.81;5067852;28;20049;-72
2023/05/17 10:22:09;;;;;;;11.02;5.90;;;;;;;19.25;95.34;92530.13;5062044;28;20044;-72
2023/05/17 10:24:36;;;;;;;11.20;5.63;;;;;;;19.12;100.00;92521.94;5060506;28;20048;-72
2023/05/17 10:27:06;;;;;;;14.20;6.05;;;;;;;19.24;100.00;92511.13;5067237;28;20387;-72
2023/05/17 10:29:34;;;;;;;13.52;5.82;;;;;;;19.45;100.00;92513.47;5067089;28;20049;-72
2023/05/17 10:32:06;;;;;;;12.57;5.65;;;;;;;19.64;100.00;92497.81;5067386;28;20052;-72
2023/05/17 10:34:35;;;;;;;10.07;5.20;;;;;;;19.88;100.00;92489.13;5067113;28;20096;-72
2023/05/17 10:37:03;;;;;;;14.25;5.32;;;;;;;19.74;97.45;92478.66;5067401;28;20041;-72
2023/05/17 10:39:33;;;;;;;13.85;5.35;;;;;;;20.09;99.32;92468.72;5067181;28;20045;-72
2023/05/17 10:42:02;;;;;;;12.43;5.03;;;;;;;19.90;98.73;92460.94;5067037;28;21033;-72
2023/05/17 10:44:32;;;;;;;12.68;4.78;;;;;;;20.40;98.76;92472.63;5067341;28;20060;-72
2023/05/17 10:46:59;;;;;;;10.93;4.75;;;;;;;20.94;96.28;92488.59;5066969;28;20390;-72
2023/05/17 10:49:29;;;;;;;11.18;5.05;;;;;;;20.96;95.77;92494.28;5052974;28;20095;-72
2023/05/17 10:51:58;;;;;;;12.95;6.05;;;;;;;21.16;95.13;92471.44;5066709;28;20040;-72
2023/05/17 10:54:35;;;;;;;12.27;5.35;;;;;;;20.93;90.08;92484.44;5066461;28;20393;-72
2023/05/17 10:57:04;;;;;;;10.38;5.00;;;;;;;20.44;89.54;92489.25;5066960;28;20049;-72
2023/05/17 10:59:32;;;;;;;11.05;5.43;;;;;;;20.38;94.58;92480.75;5041696;28;20041;-72
2023/05/17 11:02:02;;;;;;;10.40;4.85;;;;;;;19.99;91.74;92487.91;5066590;28;20485;-72
2023/05/17 11:04:33;;;;;;;12.32;5.18;;;;;;;20.37;96.17;92475.81;5067116;28;20106;-72
2023/05/17 11:07:24;;;;;;;11.48;5.43;;;;;;;20.62;90.73;92468.56;5066847;28;20508;-72
2023/05/17 11:09:53;;;;;;;12.23;5.05;;;;;;;20.54;90.59;92467.41;5066619;28;20440;-72
2023/05/17 11:12:30;;;;;;;11.63;5.47;;;;;;;20.69;92.30;92458.53;5066592;28;20539;-72
2023/05/17 11:14:57;;;;;;;11.35;5.32;;;;;;;20.49;86.49;92460.47;5066279;28;20084;-72
2023/05/17 11:17:26;;;;;;;13.82;4.63;;;;;;;20.52;88.35;92461.72;5066648;28;20041;-72
2023/05/17 11:20:01;;;;;;;9.75;4.13;;;;;;;20.81;86.79;92468.47;5066942;28;20160;-73
2023/05/17 11:22:37;;;;;;;14.60;4.35;;;;;;;21.02;83.08;92463.63;5066609;28;20044;-72